createdAt,value
2023-04-02T00:00:25.157Z,7.69
2023-04-02T00:03:42.547Z,7.66
2023-04-02T00:06:45.446Z,7.65
2023-04-02T00:09:48.387Z,7.63
2023-04-02T00:13:33.590Z,7.63
2023-04-02T00:16:36.823Z,7.64
2023-04-02T00:19:51.749Z,7.69
2023-04-02T00:22:56.274Z,7.70
2023-04-02T00:25:59.059Z,7.64
2023-04-02T00:29:03.969Z,7.59
2023-04-02T00:32:06.795Z,7.66
2023-04-02T00:35:29.525Z,7.66
2023-04-02T00:38:33.656Z,7.67
2023-04-02T00:41:38.795Z,7.64
2023-04-02T00:44:44.315Z,7.66
2023-04-02T00:47:47.285Z,7.72
2023-04-02T00:50:51.360Z,7.82
2023-04-02T00:53:56.449Z,7.92
2023-04-02T00:56:59.620Z,7.99
2023-04-02T01:00:19.315Z,8.05
2023-04-02T01:03:24.591Z,8.05
2023-04-02T01:06:37.314Z,8.07
2023-04-02T01:09:49.086Z,8.02
2023-04-02T01:13:18.884Z,7.97
2023-04-02T01:16:30.729Z,7.89
2023-04-02T01:19:50.480Z,7.89
2023-04-02T01:23:08.293Z,7.79
2023-04-02T01:26:44.751Z,7.73
2023-04-02T01:29:51.393Z,7.68
2023-04-02T01:32:54.724Z,7.62
2023-04-02T01:36:15.557Z,7.55
2023-04-02T01:39:33.320Z,7.51
2023-04-02T01:42:56.385Z,7.43
2023-04-02T01:45:59.846Z,7.37
2023-04-02T01:49:18.579Z,7.33
2023-04-02T01:52:38.220Z,7.31
2023-04-02T01:56:10.446Z,7.29
2023-04-02T01:59:17.035Z,7.24
2023-04-02T02:02:21.899Z,7.20
2023-04-02T02:05:25.640Z,7.14
2023-04-02T02:08:38.770Z,7.16
2023-04-02T02:11:42.141Z,7.22
2023-04-02T02:14:52.354Z,7.28
2023-04-02T02:18:02.359Z,7.32
2023-04-02T02:21:08.155Z,7.25
2023-04-02T02:24:26.841Z,7.36
2023-04-02T02:27:30.118Z,7.38
2023-04-02T02:30:47.418Z,7.37
2023-04-02T02:33:51.992Z,7.43
2023-04-02T02:37:04.759Z,7.44
2023-04-02T02:40:12.926Z,7.39
2023-04-02T02:43:17.162Z,7.40
2023-04-02T02:46:22.452Z,7.50
2023-04-02T02:49:32.321Z,7.47
2023-04-02T02:52:37.087Z,7.47
2023-04-02T02:55:40.559Z,7.42
2023-04-02T02:58:43.991Z,7.27
2023-04-02T03:01:47.517Z,7.32
2023-04-02T03:04:53.162Z,7.27
2023-04-02T03:07:57.419Z,7.27
2023-04-02T03:11:24.792Z,7.23
2023-04-02T03:14:53.682Z,7.20
2023-04-02T03:18:03.259Z,7.12
2023-04-02T03:21:18.610Z,7.09
2023-04-02T03:24:36.832Z,7.05
2023-04-02T03:27:42.688Z,6.98
2023-04-02T03:30:49.825Z,6.90
2023-04-02T03:33:57.536Z,6.86
2023-04-02T03:37:08.022Z,6.77
2023-04-02T03:40:22.145Z,6.81
2023-04-02T03:43:27.613Z,6.83
2023-04-02T03:46:42.630Z,6.83
2023-04-02T03:49:55.994Z,6.82
2023-04-02T03:53:01.600Z,6.81
2023-04-02T03:56:05.060Z,6.79
2023-04-02T03:59:22.288Z,6.72
2023-04-02T04:02:34.772Z,6.72
2023-04-02T04:05:46.040Z,6.70
2023-04-02T04:09:16.535Z,6.62
2023-04-02T04:12:48.793Z,6.59
2023-04-02T04:15:56.341Z,6.56
2023-04-02T04:19:10.909Z,6.57
2023-04-02T04:22:20.042Z,6.59
2023-04-02T04:25:33.994Z,6.65
2023-04-02T04:28:59.901Z,6.70
2023-04-02T04:32:32.111Z,6.67
2023-04-02T04:35:38.878Z,6.62
2023-04-02T04:38:49.382Z,6.59
2023-04-02T04:41:53.853Z,6.58
2023-04-02T04:45:21.981Z,6.52
2023-04-02T04:48:29.632Z,6.51
2023-04-02T04:51:44.773Z,6.50
2023-04-02T04:54:48.147Z,6.51
2023-04-02T04:57:56.485Z,6.52
2023-04-02T05:01:07.737Z,6.49
2023-04-02T05:04:11.652Z,6.53
2023-04-02T05:07:19.063Z,6.56
2023-04-02T05:10:34.871Z,6.60
2023-04-02T05:13:52.962Z,6.68
2023-04-02T05:17:07.960Z,6.74
2023-04-02T05:20:24.802Z,6.76
2023-04-02T05:23:31.348Z,6.81
2023-04-02T05:26:42.356Z,6.87
2023-04-02T05:29:48.561Z,6.90
2023-04-02T05:32:58.823Z,6.94
2023-04-02T05:36:11.803Z,6.97
2023-04-02T05:39:22.651Z,6.90
2023-04-02T05:42:31.859Z,6.97
2023-04-02T05:45:39.625Z,7.04
2023-04-02T05:48:44.789Z,7.09
2023-04-02T05:51:51.289Z,7.07
2023-04-02T05:55:04.616Z,7.24
2023-04-02T05:58:39.592Z,7.39
2023-04-02T06:01:48.263Z,7.57
2023-04-02T06:05:00.105Z,7.73
2023-04-02T06:08:13.535Z,7.91
2023-04-02T06:11:30.536Z,8.02
2023-04-02T06:14:33.611Z,8.13
2023-04-02T06:17:47.380Z,8.24
2023-04-02T06:20:51.089Z,8.35
2023-04-02T06:23:55.090Z,8.43
2023-04-02T06:27:02.991Z,8.56
2023-04-02T06:30:15.034Z,8.68
2023-04-02T06:33:19.155Z,8.85
2023-04-02T06:36:24.567Z,9.03
2023-04-02T06:39:29.856Z,9.20
2023-04-02T06:42:36.331Z,9.33
2023-04-02T06:45:42.866Z,9.53
2023-04-02T06:48:48.074Z,9.69
2023-04-02T06:51:52.846Z,9.88
2023-04-02T06:54:56.438Z,10.04
2023-04-02T06:57:59.801Z,10.24
2023-04-02T07:01:03.976Z,10.38
2023-04-02T07:04:08.580Z,10.57
2023-04-02T07:07:12.090Z,10.77
2023-04-02T07:10:16.395Z,10.97
2023-04-02T07:13:22.386Z,11.14
2023-04-02T07:16:27.409Z,11.37
2023-04-02T07:19:31.414Z,11.48
2023-04-02T07:22:35.090Z,11.67
2023-04-02T07:25:39.016Z,11.82
2023-04-02T07:28:42.069Z,12.03
2023-04-02T07:31:45.451Z,12.21
2023-04-02T07:34:49.177Z,12.27
2023-04-02T07:37:53.002Z,12.37
2023-04-02T07:40:55.865Z,12.38
2023-04-02T07:43:58.996Z,12.60
2023-04-02T07:47:01.903Z,12.75
2023-04-02T07:50:05.962Z,12.99
2023-04-02T07:53:27.174Z,12.99
2023-04-02T07:56:31.691Z,13.24
2023-04-02T07:59:34.573Z,13.70
2023-04-02T08:02:37.737Z,14.08
2023-04-02T08:05:40.760Z,14.27
2023-04-02T08:08:43.674Z,14.50
2023-04-02T08:11:46.867Z,14.76
2023-04-02T08:14:49.755Z,14.98
2023-04-02T08:17:53.585Z,15.17
2023-04-02T08:20:57.362Z,15.40
2023-04-02T08:24:00.424Z,15.56
2023-04-02T08:27:03.194Z,15.89
2023-04-02T08:30:08.060Z,16.21
2023-04-02T08:33:18.629Z,16.50
2023-04-02T08:36:27.677Z,16.78
2023-04-02T08:39:33.177Z,16.82
2023-04-02T08:43:06.239Z,16.18
2023-04-02T08:46:31.392Z,15.72
2023-04-02T08:50:15.411Z,15.28
2023-04-02T08:53:21.679Z,15.04
2023-04-02T08:56:32.583Z,14.75
2023-04-02T08:59:38.231Z,14.85
2023-04-02T09:02:47.120Z,14.80
2023-04-02T09:05:51.289Z,14.92
2023-04-02T09:08:54.969Z,15.12
2023-04-02T09:12:05.739Z,15.11
2023-04-02T09:15:47.580Z,15.30
2023-04-02T09:18:53.062Z,15.70
2023-04-02T09:22:01.903Z,16.12
2023-04-02T09:25:06.477Z,16.74
2023-04-02T09:28:11.003Z,17.16
2023-04-02T09:31:20.784Z,16.89
2023-04-02T09:34:35.529Z,16.75
2023-04-02T09:37:38.878Z,16.12
2023-04-02T09:40:52.440Z,16.24
2023-04-02T09:44:20.050Z,15.77
2023-04-02T09:47:27.466Z,15.47
2023-04-02T09:50:32.922Z,15.29
2023-04-02T09:53:39.866Z,15.45
2023-04-02T09:57:04.024Z,15.75
2023-04-02T10:00:30.435Z,15.48
2023-04-02T10:03:43.218Z,15.27
2023-04-02T10:06:50.111Z,15.22
2023-04-02T10:10:14.518Z,15.20
2023-04-02T10:13:24.788Z,15.59
2023-04-02T10:16:34.684Z,17.31
2023-04-02T10:19:56.576Z,18.17
2023-04-02T10:22:59.736Z,19.35
2023-04-02T10:26:08.473Z,19.59
2023-04-02T10:29:53.439Z,19.08
2023-04-02T10:32:58.169Z,19.13
2023-04-02T10:36:04.383Z,19.19
2023-04-02T10:39:29.622Z,18.17
2023-04-02T10:42:59.045Z,17.28
2023-04-02T10:46:13.783Z,16.66
2023-04-02T10:49:21.415Z,16.26
2023-04-02T10:52:31.393Z,15.92
2023-04-02T10:55:40.933Z,15.68
2023-04-02T10:59:17.731Z,15.57
2023-04-02T11:02:35.036Z,15.40
2023-04-02T11:05:44.165Z,15.29
2023-04-02T11:08:49.346Z,15.35
2023-04-02T11:11:54.597Z,16.47
2023-04-02T11:14:57.992Z,16.27
2023-04-02T11:18:01.266Z,16.20
2023-04-02T11:21:08.268Z,15.80
2023-04-02T11:24:36.998Z,16.75
2023-04-02T11:27:39.831Z,18.34
2023-04-02T11:30:42.687Z,18.94
2023-04-02T11:33:48.112Z,18.46
2023-04-02T11:36:55.083Z,17.95
2023-04-02T11:40:00.375Z,17.45
2023-04-02T11:43:36.000Z,16.94
2023-04-02T11:46:41.052Z,16.11
2023-04-02T11:49:56.478Z,16.72
2023-04-02T11:53:04.335Z,16.62
2023-04-02T11:56:08.054Z,16.42
2023-04-02T11:59:20.590Z,16.05
2023-04-02T12:02:29.426Z,15.78
2023-04-02T12:05:37.613Z,15.87
2023-04-02T12:08:56.986Z,17.02
2023-04-02T12:12:15.744Z,18.13
2023-04-02T12:15:44.432Z,17.43
2023-04-02T12:18:51.243Z,18.95
2023-04-02T12:21:54.343Z,20.06
2023-04-02T12:25:04.132Z,20.46
2023-04-02T12:28:09.671Z,20.89
2023-04-02T12:31:15.072Z,21.08
2023-04-02T12:34:23.541Z,21.07
2023-04-02T12:37:30.712Z,21.26
2023-04-02T12:40:33.380Z,21.57
2023-04-02T12:43:37.999Z,21.38
2023-04-02T12:46:41.049Z,21.72
2023-04-02T12:49:44.540Z,21.91
2023-04-02T12:52:50.049Z,21.51
2023-04-02T12:55:54.113Z,21.08
2023-04-02T12:59:00.845Z,21.18
2023-04-02T13:02:17.572Z,21.40
2023-04-02T13:06:00.447Z,21.44
2023-04-02T13:09:08.219Z,21.64
2023-04-02T13:12:34.314Z,21.64
2023-04-02T13:15:37.879Z,21.22
2023-04-02T13:18:41.137Z,21.70
2023-04-02T13:21:44.839Z,21.39
2023-04-02T13:24:47.733Z,21.54
2023-04-02T13:27:51.036Z,21.43
2023-04-02T13:30:53.998Z,20.68
2023-04-02T13:33:58.082Z,20.76
2023-04-02T13:37:00.834Z,20.81
2023-04-02T13:40:04.607Z,20.91
2023-04-02T13:43:08.310Z,20.85
2023-04-02T13:46:18.175Z,21.12
2023-04-02T13:49:22.012Z,21.22
2023-04-02T13:52:25.398Z,20.33
2023-04-02T13:55:30.695Z,19.76
2023-04-02T13:58:33.898Z,19.15
2023-04-02T14:01:37.515Z,18.67
2023-04-02T14:04:50.143Z,18.88
2023-04-02T14:08:06.580Z,19.34
2023-04-02T14:11:18.941Z,19.64
2023-04-02T14:14:40.000Z,19.72
2023-04-02T14:18:10.574Z,20.10
2023-04-02T14:21:29.192Z,19.94
2023-04-02T14:24:35.533Z,19.92
2023-04-02T14:28:09.986Z,19.56
2023-04-02T14:31:18.915Z,18.42
2023-04-02T14:34:29.160Z,17.57
2023-04-02T14:38:11.089Z,16.84
2023-04-02T14:41:18.212Z,15.76
2023-04-02T14:44:23.974Z,15.11
2023-04-02T14:47:54.351Z,14.52
2023-04-02T14:51:05.276Z,14.14
2023-04-02T14:54:37.361Z,13.81
2023-04-02T14:57:49.045Z,13.55
2023-04-02T15:00:56.849Z,13.36
2023-04-02T15:04:15.499Z,13.13
2023-04-02T15:07:20.260Z,13.04
2023-04-02T15:10:35.934Z,12.99
2023-04-02T15:13:41.966Z,12.87
2023-04-02T15:16:45.967Z,12.64
2023-04-02T15:20:02.684Z,12.49
2023-04-02T15:23:33.846Z,12.36
2023-04-02T15:27:25.051Z,12.38
2023-04-02T15:30:35.549Z,12.28
2023-04-02T15:33:43.278Z,12.16
2023-04-02T15:36:48.430Z,12.22
2023-04-02T15:40:16.601Z,12.19
2023-04-02T15:44:03.958Z,12.19
2023-04-02T15:47:06.716Z,12.11
2023-04-02T15:50:51.398Z,12.05
2023-04-02T15:54:16.967Z,11.94
2023-04-02T15:57:23.248Z,11.97
2023-04-02T16:00:31.236Z,12.09
2023-04-02T16:03:46.409Z,12.11
2023-04-02T16:07:24.857Z,12.09
2023-04-02T16:10:41.768Z,12.09
2023-04-02T16:13:47.111Z,11.90
2023-04-02T16:16:51.296Z,11.71
2023-04-02T16:20:04.984Z,11.64
2023-04-02T16:23:17.917Z,11.46
2023-04-02T16:26:45.857Z,11.42
2023-04-02T16:30:07.524Z,11.39
2023-04-02T16:33:31.636Z,11.38
2023-04-02T16:36:54.039Z,11.44
2023-04-02T16:40:42.084Z,11.47
2023-04-02T16:44:18.446Z,11.47
2023-04-02T16:47:28.527Z,11.50
2023-04-02T16:50:44.366Z,11.52
2023-04-02T16:54:01.723Z,11.39
2023-04-02T16:57:24.399Z,11.30
2023-04-02T17:00:35.747Z,11.18
2023-04-02T17:03:52.081Z,11.16
2023-04-02T17:07:16.754Z,11.14
2023-04-02T17:10:40.271Z,11.18
2023-04-02T17:13:47.530Z,11.13
2023-04-02T17:16:53.207Z,11.05
2023-04-02T17:19:59.092Z,11.01
2023-04-02T17:26:07.751Z,10.94
2023-04-02T17:29:17.667Z,11.01
2023-04-02T17:32:32.719Z,10.96
2023-04-02T17:35:49.250Z,10.95
2023-04-02T17:39:25.649Z,10.99
2023-04-02T17:42:47.403Z,11.01
2023-04-02T17:45:56.717Z,11.01
2023-04-02T17:49:44.348Z,11.03
2023-04-02T17:52:59.959Z,10.94
2023-04-02T17:56:06.680Z,11.00
2023-04-02T17:59:43.242Z,10.94
2023-04-02T18:02:57.361Z,10.90
2023-04-02T18:06:00.581Z,10.89
2023-04-02T18:09:19.414Z,10.96
2023-04-02T18:12:57.178Z,10.98
2023-04-02T18:16:02.319Z,10.90
2023-04-02T18:19:16.285Z,10.86
2023-04-02T18:22:53.294Z,10.79
2023-04-02T18:26:02.396Z,10.69
2023-04-02T18:29:27.692Z,10.62
2023-04-02T18:32:43.225Z,10.62
2023-04-02T18:35:59.976Z,10.58
2023-04-02T18:39:21.550Z,10.56
2023-04-02T18:42:50.609Z,10.50
2023-04-02T18:46:05.189Z,10.49
2023-04-02T18:49:26.350Z,10.45
2023-04-02T18:52:30.336Z,10.42
2023-04-02T18:55:33.314Z,10.39
2023-04-02T18:58:53.969Z,10.36
2023-04-02T19:01:58.226Z,10.31
2023-04-02T19:05:03.851Z,10.26
2023-04-02T19:08:14.246Z,10.22
2023-04-02T19:11:31.919Z,10.21
2023-04-02T19:14:35.037Z,10.17
2023-04-02T19:17:44.537Z,10.14
2023-04-02T19:20:57.030Z,10.15
2023-04-02T19:24:11.230Z,10.15
2023-04-02T19:27:23.067Z,10.09
2023-04-02T19:30:52.092Z,10.09
2023-04-02T19:34:07.795Z,10.00
2023-04-02T19:37:23.829Z,9.96
2023-04-02T19:40:54.033Z,9.87
2023-04-02T19:43:57.397Z,9.89
2023-04-02T19:47:00.418Z,9.86
2023-04-02T19:50:04.473Z,9.87
2023-04-02T19:53:07.317Z,9.77
2023-04-02T19:56:10.401Z,9.63
2023-04-02T20:02:19.693Z,9.61
2023-04-02T20:05:22.945Z,9.54
2023-04-02T20:08:26.923Z,9.48
2023-04-02T20:11:30.147Z,9.35
2023-04-02T20:14:33.065Z,9.32
2023-04-02T20:17:36.235Z,9.35
2023-04-02T20:20:40.374Z,9.22
2023-04-02T20:23:43.533Z,9.19
2023-04-02T20:26:46.422Z,9.07
2023-04-02T20:29:49.951Z,9.05
2023-04-02T20:32:52.553Z,8.96
2023-04-02T20:36:02.260Z,8.99
2023-04-02T20:39:07.918Z,8.93
2023-04-02T20:42:11.053Z,8.93
2023-04-02T20:45:13.957Z,8.86
2023-04-02T20:48:16.899Z,8.76
2023-04-02T20:51:19.488Z,8.68
2023-04-02T20:54:37.922Z,8.67
2023-04-02T20:57:40.624Z,8.70
2023-04-02T21:00:44.477Z,8.68
2023-04-02T21:03:47.845Z,8.59
2023-04-02T21:06:56.794Z,8.51
2023-04-02T21:09:59.426Z,8.38
2023-04-02T21:13:02.366Z,8.25
2023-04-02T21:16:36.355Z,8.21
2023-04-02T21:19:39.219Z,8.24
2023-04-02T21:22:41.918Z,8.19
2023-04-02T21:25:57.805Z,8.14
2023-04-02T21:29:00.571Z,8.15
2023-04-02T21:32:17.961Z,8.20
2023-04-02T21:35:23.687Z,8.18
2023-04-02T21:38:26.547Z,8.23
2023-04-02T21:41:31.554Z,8.18
2023-04-02T21:44:34.632Z,8.09
2023-04-02T21:47:37.207Z,8.04
2023-04-02T21:50:40.108Z,7.92
2023-04-02T21:53:43.324Z,7.97
2023-04-02T21:56:47.109Z,7.90
2023-04-02T21:59:49.634Z,7.85
2023-04-02T22:02:52.767Z,7.71
2023-04-02T22:06:08.329Z,7.65
2023-04-02T22:09:13.789Z,7.61
2023-04-02T22:12:17.007Z,7.59
2023-04-02T22:15:19.468Z,7.55
2023-04-02T22:18:22.447Z,7.51
2023-04-02T22:21:26.006Z,7.51
2023-04-02T22:24:29.120Z,7.47
2023-04-02T22:27:31.693Z,7.45
2023-04-02T22:30:34.746Z,7.43
2023-04-02T22:33:37.815Z,7.38
2023-04-02T22:36:41.298Z,7.29
2023-04-02T22:39:44.240Z,7.40
2023-04-02T22:42:48.000Z,7.37
2023-04-02T22:45:51.605Z,7.37
2023-04-02T22:48:54.866Z,7.37
2023-04-02T22:51:57.653Z,7.32
2023-04-02T22:55:00.499Z,7.32
2023-04-02T22:58:03.055Z,7.27
2023-04-02T23:01:13.267Z,7.25
2023-04-02T23:04:16.050Z,7.22
2023-04-02T23:07:18.878Z,7.13
2023-04-02T23:10:21.545Z,7.07
2023-04-02T23:13:24.495Z,7.03
2023-04-02T23:16:28.715Z,7.02
2023-04-02T23:19:31.823Z,6.95
2023-04-02T23:22:36.839Z,6.94
2023-04-02T23:25:41.255Z,6.89
2023-04-02T23:28:44.345Z,6.83
2023-04-02T23:31:47.461Z,6.81
2023-04-02T23:34:50.159Z,6.77
2023-04-02T23:37:52.913Z,6.73
2023-04-02T23:40:55.497Z,6.72
2023-04-02T23:43:58.927Z,6.69
2023-04-02T23:47:02.379Z,6.68
2023-04-02T23:50:05.793Z,6.63
2023-04-02T23:53:08.382Z,6.59
2023-04-02T23:56:11.743Z,6.58
2023-04-02T23:59:14.512Z,6.47
